Time;durP1;ratioP1;P1;durP2;ratioP2;P2;SDS_P1;SDS_P2;PMS_P1;PMS_P2;Temp;Humidity;BMP_temperature;BMP_pressure;BME280_temperature;BME280_humidity;BME280_pressure;Samples;Min_cycle;Max_cycle;Signal;HPM_P1;HPM_P2
2022/01/17 00:01:05;;;;;;;9.35;4.95;;;3.30;56.30;;;;;;5107781;27;35876;-75
2022/01/17 00:03:31;;;;;;;7.30;4.63;;;3.30;56.30;;;;;;5108769;27;34238;-75
2022/01/17 00:05:57;;;;;;;12.15;5.55;;;3.30;56.30;;;;;;5108565;27;34290;-75
2022/01/17 00:08:23;;;;;;;9.88;5.05;;;3.30;56.40;;;;;;5091160;27;34140;-75
2022/01/17 00:10:49;;;;;;;9.75;4.53;;;3.30;56.50;;;;;;5126774;27;34451;-75
2022/01/17 00:16:05;;;;;;;8.75;4.60;;;3.30;56.50;;;;;;5125887;27;34213;-75
2022/01/17 00:19:04;;;;;;;8.15;4.78;;;3.30;56.60;;;;;;5109056;27;34015;-75
2022/01/17 00:21:24;;;;;;;11.50;5.03;;;3.30;56.60;;;;;;5110707;27;34340;-75
2022/01/17 00:23:50;;;;;;;8.35;4.57;;;3.30;56.50;;;;;;5126615;27;34360;-75
2022/01/17 00:26:16;;;;;;;10.82;4.65;;;3.30;56.40;;;;;;5108227;27;34049;-75
2022/01/17 00:28:42;;;;;;;8.05;4.90;;;3.30;56.40;;;;;;5108301;27;34457;-75
2022/01/17 00:31:08;;;;;;;13.02;5.20;;;3.30;56.50;;;;;;5107475;27;34620;-75
2022/01/17 00:33:34;;;;;;;10.18;5.22;;;3.30;56.40;;;;;;5107597;27;34699;-75
2022/01/17 00:36:00;;;;;;;8.75;4.72;;;3.30;56.40;;;;;;5107848;27;34036;-75
2022/01/17 00:38:27;;;;;;;10.82;5.18;;;3.30;56.30;;;;;;5107922;27;34463;-75
2022/01/17 00:40:53;;;;;;;9.57;4.70;;;3.30;56.40;;;;;;5107162;27;35494;-75
2022/01/17 00:43:19;;;;;;;8.80;4.65;;;3.30;56.50;;;;;;5091396;27;34228;-75
2022/01/17 00:45:45;;;;;;;11.05;5.25;;;3.30;56.50;;;;;;5126039;27;34532;-76
2022/01/17 00:48:12;;;;;;;11.48;4.97;;;3.30;56.50;;;;;;5107632;27;34205;-75
2022/01/17 00:50:40;;;;;;;11.30;5.32;;;3.30;56.40;;;;;;5107319;27;35488;-76
2022/01/17 00:53:07;;;;;;;8.18;4.93;;;3.30;56.50;;;;;;5107974;27;34146;-76
2022/01/17 00:55:35;;;;;;;9.05;5.07;;;3.40;56.50;;;;;;5107849;27;34164;-75
2022/01/17 00:58:02;;;;;;;11.32;5.00;;;3.40;56.40;;;;;;5090561;27;34508;-75
2022/01/17 01:00:28;;;;;;;10.05;4.75;;;3.30;56.30;;;;;;5107554;27;35741;-75
2022/01/17 01:02:55;;;;;;;11.48;5.30;;;3.30;56.50;;;;;;5107312;27;34411;-75
2022/01/17 01:05:21;;;;;;;11.27;5.80;;;3.30;56.40;;;;;;5107453;27;34485;-75
2022/01/17 01:07:47;;;;;;;9.23;4.70;;;3.30;57.00;;;;;;5107427;27;34104;-75
2022/01/17 01:10:14;;;;;;;11.50;5.55;;;3.30;56.40;;;;;;5106841;27;35647;-75
2022/01/17 01:12:42;;;;;;;9.82;5.32;;;3.40;56.40;;;;;;5108160;27;34169;-75
2022/01/17 01:15:14;;;;;;;8.68;5.25;;;3.40;56.50;;;;;;5106881;27;34337;-75
2022/01/17 01:21:01;;;;;;;10.25;5.10;;;3.40;57.10;;;;;;5125037;27;34798;-75
2022/01/17 01:28:37;;;;;;;8.77;4.65;;;3.40;56.50;;;;;;5124491;27;34243;-75
2022/01/17 01:31:08;;;;;;;9.80;4.72;;;3.40;56.50;;;;;;5106458;27;36787;-75
2022/01/17 01:33:38;;;;;;;9.57;4.50;;;3.40;56.50;;;;;;5106870;27;34523;-75
2022/01/17 01:36:12;;;;;;;10.02;5.03;;;3.40;56.50;;;;;;5108021;27;34117;-75
2022/01/17 01:38:40;;;;;;;11.13;5.30;;;3.40;56.40;;;;;;5091145;27;34296;-75
2022/01/17 01:41:06;;;;;;;9.32;4.95;;;3.40;56.50;;;;;;5106279;27;35929;-75
2022/01/17 01:43:32;;;;;;;9.85;4.80;;;3.40;56.60;;;;;;5107007;27;34493;-75
2022/01/17 01:46:01;;;;;;;10.55;5.15;;;3.40;56.50;;;;;;5105429;27;34338;-75
2022/01/17 01:48:29;;;;;;;8.00;4.60;;;3.40;56.50;;;;;;5107167;27;34506;-75
2022/01/17 01:50:55;;;;;;;10.77;5.55;;;3.40;56.50;;;;;;5107000;27;35434;-75
2022/01/17 01:53:23;;;;;;;11.07;5.70;;;3.40;56.50;;;;;;5106407;27;34231;-76
2022/01/17 01:55:52;;;;;;;9.00;4.95;;;3.40;56.50;;;;;;5105932;27;34402;-75
2022/01/17 01:58:21;;;;;;;10.98;5.85;;;3.50;56.60;;;;;;5107124;27;34080;-75
2022/01/17 02:00:48;;;;;;;11.48;4.72;;;3.40;56.40;;;;;;5123933;27;35266;-75
2022/01/17 02:03:14;;;;;;;9.88;4.55;;;3.50;56.50;;;;;;5124131;27;34263;-75
2022/01/17 02:05:40;;;;;;;9.70;5.15;;;3.50;56.50;;;;;;5106263;27;34444;-75
2022/01/17 02:08:10;;;;;;;10.77;4.93;;;3.50;56.40;;;;;;5106333;27;34324;-75
2022/01/17 02:10:36;;;;;;;10.80;5.65;;;3.50;56.30;;;;;;5089313;27;35923;-75
2022/01/17 02:13:02;;;;;;;9.65;4.70;;;3.50;56.30;;;;;;5106035;27;34301;-75
2022/01/17 02:15:28;;;;;;;9.45;4.95;;;3.60;56.30;;;;;;5105749;27;34324;-75
2022/01/17 02:17:57;;;;;;;11.32;5.50;;;3.50;56.30;;;;;;5106417;27;34151;-75
2022/01/17 02:20:34;;;;;;;9.10;4.40;;;3.50;56.30;;;;;;5088825;27;36089;-75
2022/01/17 02:23:04;;;;;;;12.25;5.38;;;3.60;56.30;;;;;;5089947;27;34286;-75
2022/01/17 02:25:31;;;;;;;9.20;5.05;;;3.50;56.30;;;;;;5106078;27;34436;-75
2022/01/17 02:27:58;;;;;;;9.40;4.47;;;3.50;56.30;;;;;;5105828;27;34417;-75
2022/01/17 02:30:26;;;;;;;9.57;4.70;;;3.50;56.30;;;;;;5105682;27;36308;-75
2022/01/17 02:32:53;;;;;;;7.80;5.03;;;3.50;56.40;;;;;;5089151;27;34290;-75
2022/01/17 02:35:22;;;;;;;8.80;4.82;;;3.50;56.40;;;;;;5089138;27;35253;-75
2022/01/17 02:37:49;;;;;;;9.25;4.82;;;3.60;56.30;;;;;;5105548;27;34349;-76
2022/01/17 02:40:18;;;;;;;8.82;5.18;;;3.50;56.30;;;;;;5105538;27;35945;-75
2022/01/17 02:42:47;;;;;;;9.25;5.05;;;3.60;56.30;;;;;;5105503;27;34275;-75
2022/01/17 02:45:33;;;;;;;10.48;5.28;;;3.60;56.30;;;;;;5105630;27;34185;-75
2022/01/17 02:48:01;;;;;;;12.25;5.45;;;3.60;56.30;;;;;;5123802;27;34343;-75
2022/01/17 02:50:28;;;;;;;7.47;4.20;;;3.50;56.40;;;;;;5124089;27;34963;-75
2022/01/17 02:53:04;;;;;;;9.98;4.53;;;3.50;56.50;;;;;;5105258;27;34198;-75
2022/01/17 02:55:31;;;;;;;11.48;5.30;;;3.50;56.60;;;;;;5105778;27;34404;-75
2022/01/17 02:57:58;;;;;;;9.40;4.80;;;3.50;56.50;;;;;;5088500;27;33955;-75
2022/01/17 03:00:24;;;;;;;7.60;4.90;;;3.50;56.60;;;;;;5105120;27;35564;-75
2022/01/17 03:02:50;;;;;;;8.15;4.45;;;3.50;56.50;;;;;;5123881;27;34139;-75
2022/01/17 03:05:18;;;;;;;10.40;5.10;;;3.50;56.60;;;;;;5123995;27;34192;-75
2022/01/17 03:07:46;;;;;;;8.65;4.68;;;3.50;56.60;;;;;;5105993;27;34484;-75
2022/01/17 03:13:04;;;;;;;8.57;4.72;;;3.60;56.50;;;;;;5093735;27;34192;-75
2022/01/17 03:15:31;;;;;;;10.68;5.53;;;3.60;56.60;;;;;;5106247;27;34134;-75
2022/01/17 03:17:57;;;;;;;8.98;4.60;;;3.60;56.60;;;;;;5088173;27;34430;-75
2022/01/17 03:20:23;;;;;;;9.48;4.40;;;3.50;56.60;;;;;;5104868;27;35697;-75
2022/01/17 03:22:49;;;;;;;9.20;4.90;;;3.60;56.50;;;;;;5123203;27;34165;-75
2022/01/17 03:25:15;;;;;;;9.85;4.07;;;3.60;56.50;;;;;;5123560;27;34317;-75
2022/01/17 03:27:41;;;;;;;7.32;4.45;;;3.60;56.50;;;;;;5105283;27;34396;-75
2022/01/17 03:30:08;;;;;;;12.85;4.82;;;3.70;56.50;;;;;;5105095;27;35693;-75
2022/01/17 03:32:34;;;;;;;8.23;4.38;;;3.70;56.50;;;;;;5090326;27;34318;-75
2022/01/17 03:35:00;;;;;;;7.82;4.53;;;3.70;56.50;;;;;;5108731;27;34468;-75
2022/01/17 03:37:27;;;;;;;9.32;4.55;;;3.70;56.40;;;;;;5127296;27;34239;-75
2022/01/17 03:39:53;;;;;;;9.80;5.15;;;3.70;56.50;;;;;;5126446;27;34955;-75
2022/01/17 03:42:20;;;;;;;7.57;4.00;;;3.70;56.60;;;;;;5109171;27;34259;-76
2022/01/17 03:44:46;;;;;;;7.70;4.20;;;3.70;56.60;;;;;;5091604;27;34173;-76
2022/01/17 03:47:13;;;;;;;9.20;4.72;;;3.70;56.50;;;;;;5127090;27;34199;-76
2022/01/17 03:49:39;;;;;;;9.88;4.72;;;3.70;56.50;;;;;;5108452;27;36596;-76
2022/01/17 03:52:06;;;;;;;8.30;4.25;;;3.70;56.60;;;;;;5108557;27;34320;-75
2022/01/17 03:54:32;;;;;;;8.55;4.95;;;3.70;56.50;;;;;;5091392;27;34226;-76
2022/01/17 03:56:58;;;;;;;9.38;4.82;;;3.70;56.50;;;;;;5108372;27;34107;-75
2022/01/17 03:59:25;;;;;;;7.57;3.97;;;3.70;56.60;;;;;;5108183;27;35839;-75
2022/01/17 04:01:51;;;;;;;7.03;3.90;;;3.70;56.70;;;;;;5108630;27;34031;-76
2022/01/17 04:04:17;;;;;;;7.90;4.45;;;3.70;56.70;;;;;;5109012;27;34290;-75
2022/01/17 04:06:44;;;;;;;8.13;4.10;;;3.70;56.80;;;;;;5108090;27;34204;-75
2022/01/17 04:09:11;;;;;;;7.97;4.32;;;3.70;56.70;;;;;;5091768;27;35492;-75
2022/01/17 04:11:37;;;;;;;9.98;4.70;;;3.70;57.40;;;;;;5108404;27;34439;-75
2022/01/17 04:14:06;;;;;;;6.88;4.00;;;3.70;56.70;;;;;;5090995;27;34529;-75
2022/01/17 04:16:33;;;;;;;9.25;4.50;;;3.70;56.70;;;;;;5107774;27;34452;-75
2022/01/17 04:18:59;;;;;;;7.40;4.38;;;3.70;56.70;;;;;;5107649;27;35530;-75
2022/01/17 04:21:31;;;;;;;8.43;4.30;;;3.70;56.70;;;;;;5074540;27;34313;-75
2022/01/17 04:23:57;;;;;;;8.57;4.22;;;3.70;56.80;;;;;;5107754;27;34334;-75
2022/01/17 04:26:24;;;;;;;8.55;4.05;;;3.60;56.70;;;;;;5108408;27;34442;-75
2022/01/17 04:28:50;;;;;;;9.85;4.85;;;3.60;56.70;;;;;;5125982;27;35532;-75
2022/01/17 04:31:16;;;;;;;5.95;3.25;;;3.60;56.80;;;;;;5108235;27;34143;-76
2022/01/17 04:33:42;;;;;;;8.77;4.13;;;3.60;56.80;;;;;;5108303;27;34194;-75
2022/01/17 04:36:09;;;;;;;7.47;3.58;;;3.60;56.80;;;;;;5107724;27;34186;-76
2022/01/17 04:38:36;;;;;;;12.70;4.30;;;3.60;56.80;;;;;;5108360;27;34223;-75
2022/01/17 04:41:11;;;;;;;7.00;4.03;;;3.60;56.80;;;;;;5108146;27;34235;-75
2022/01/17 04:46:24;;;;;;;7.45;3.72;;;3.60;56.70;;;;;;5110707;27;34164;-75
2022/01/17 04:48:50;;;;;;;5.13;3.67;;;3.60;56.70;;;;;;5107766;27;35992;-75
2022/01/17 04:51:16;;;;;;;7.38;3.75;;;3.60;56.70;;;;;;5126134;27;34375;-75
2022/01/17 04:53:53;;;;;;;7.82;4.50;;;3.60;56.70;;;;;;5107925;27;34207;-75
2022/01/17 04:56:19;;;;;;;5.15;3.65;;;3.50;56.80;;;;;;5107406;27;34011;-76
2022/01/17 04:58:46;;;;;;;7.00;4.10;;;3.50;56.80;;;;;;5125935;27;35003;-76
2022/01/17 05:01:12;;;;;;;7.40;3.85;;;3.50;57.60;;;;;;5107888;27;34110;-75
2022/01/17 05:03:38;;;;;;;6.95;3.50;;;3.50;56.90;;;;;;5107680;27;34181;-76
2022/01/17 05:06:04;;;;;;;6.03;4.32;;;3.50;56.80;;;;;;5107226;27;34218;-75
2022/01/17 05:08:30;;;;;;;7.25;3.90;;;3.50;56.80;;;;;;5124875;27;34269;-75
2022/01/17 05:10:56;;;;;;;6.20;4.05;;;3.50;56.70;;;;;;5090385;27;34409;-75
2022/01/17 05:13:31;;;;;;;6.15;3.60;;;3.60;56.80;;;;;;5107726;27;34230;-75
2022/01/17 05:16:09;;;;;;;6.47;4.55;;;3.60;56.70;;;;;;5125937;27;34391;-76
2022/01/17 05:21:22;;;;;;;8.15;4.05;;;3.60;56.70;;;;;;5110499;27;34313;-76
2022/01/17 05:23:48;;;;;;;6.15;3.88;;;3.50;56.90;;;;;;5107390;27;34270;-76
2022/01/17 05:26:14;;;;;;;6.70;3.92;;;3.50;56.80;;;;;;5125667;27;34387;-75
2022/01/17 05:28:40;;;;;;;5.75;3.80;;;3.50;56.80;;;;;;5124539;27;35020;-76
2022/01/17 05:31:07;;;;;;;6.75;3.92;;;3.50;56.90;;;;;;5107193;27;34321;-76
2022/01/17 05:33:32;;;;;;;5.82;3.38;;;3.50;56.80;;;;;;5090178;27;34315;-76
2022/01/17 05:35:59;;;;;;;8.07;4.03;;;3.50;56.80;;;;;;5090027;27;34600;-76
2022/01/17 05:38:24;;;;;;;7.38;4.57;;;3.50;56.90;;;;;;5106509;27;36730;-75
2022/01/17 05:40:51;;;;;;;7.55;3.95;;;3.50;57.00;;;;;;5089929;27;34135;-75
2022/01/17 05:43:17;;;;;;;6.50;3.78;;;3.50;57.00;;;;;;5106924;27;34142;-76
2022/01/17 05:45:43;;;;;;;7.28;3.97;;;3.60;56.90;;;;;;5106380;27;34487;-76
2022/01/17 05:48:09;;;;;;;8.23;4.05;;;3.60;56.90;;;;;;5089647;27;36199;-76
2022/01/17 05:50:35;;;;;;;7.68;4.50;;;3.60;56.80;;;;;;5124789;27;34150;-76
2022/01/17 05:53:01;;;;;;;6.88;3.97;;;3.60;56.80;;;;;;5089787;27;34460;-76
2022/01/17 05:55:27;;;;;;;6.60;3.95;;;3.60;56.80;;;;;;5124158;27;34572;-76
2022/01/17 05:57:53;;;;;;;8.68;4.15;;;3.60;56.80;;;;;;5123646;27;34797;-75
2022/01/17 06:00:19;;;;;;;7.72;4.22;;;3.60;56.80;;;;;;5107088;27;34154;-75
2022/01/17 06:02:45;;;;;;;10.02;4.43;;;3.60;56.80;;;;;;5106446;27;34179;-76
2022/01/17 06:05:12;;;;;;;6.47;3.47;;;3.70;56.80;;;;;;5090176;27;34263;-75
2022/01/17 06:07:38;;;;;;;7.68;4.07;;;3.70;56.70;;;;;;5106063;27;35784;-76
2022/01/17 06:10:05;;;;;;;7.07;4.07;;;3.70;56.80;;;;;;5106147;27;34099;-76
2022/01/17 06:12:31;;;;;;;6.38;3.97;;;3.70;56.90;;;;;;5089395;27;34175;-76
2022/01/17 06:14:58;;;;;;;9.32;3.83;;;3.70;56.90;;;;;;5106732;27;34417;-76
2022/01/17 06:17:24;;;;;;;9.00;4.35;;;3.70;56.90;;;;;;5106142;27;35651;-76
2022/01/17 06:19:50;;;;;;;6.82;3.85;;;3.70;56.90;;;;;;5105569;27;34178;-76
2022/01/17 06:22:16;;;;;;;6.25;3.67;;;3.70;56.80;;;;;;5106220;27;34189;-76
2022/01/17 06:24:43;;;;;;;5.95;3.78;;;3.70;56.80;;;;;;5106347;27;34195;-76
2022/01/17 06:27:09;;;;;;;6.75;4.22;;;3.80;56.90;;;;;;5105525;27;35627;-76
2022/01/17 06:29:35;;;;;;;6.80;3.97;;;3.70;56.90;;;;;;5105449;27;34236;-76
2022/01/17 06:32:01;;;;;;;6.45;3.78;;;3.80;56.80;;;;;;5107070;27;34453;-76
2022/01/17 06:34:27;;;;;;;5.72;4.05;;;3.80;56.80;;;;;;5088949;27;34343;-76
2022/01/17 06:36:53;;;;;;;6.60;4.18;;;3.80;56.90;;;;;;5105903;27;36497;-76
2022/01/17 06:39:19;;;;;;;6.30;3.40;;;3.80;56.80;;;;;;5089139;27;34567;-76
2022/01/17 06:41:45;;;;;;;5.97;3.67;;;3.80;56.80;;;;;;5123643;27;34537;-76
2022/01/17 06:44:11;;;;;;;5.35;3.60;;;3.80;56.70;;;;;;5106117;27;34141;-75
2022/01/17 06:46:37;;;;;;;6.55;3.63;;;3.80;56.70;;;;;;5088845;27;36122;-75
2022/01/17 06:49:04;;;;;;;6.88;3.80;;;3.90;56.70;;;;;;5088394;27;34270;-76
2022/01/17 06:51:30;;;;;;;5.90;3.80;;;3.90;56.70;;;;;;5105631;27;34152;-75
2022/01/17 06:53:56;;;;;;;5.82;3.40;;;3.90;56.70;;;;;;5105904;27;34183;-75
2022/01/17 06:56:22;;;;;;;4.03;3.05;;;3.90;56.60;;;;;;5089053;27;35397;-75
2022/01/17 06:58:49;;;;;;;5.45;3.53;;;3.90;56.60;;;;;;5088132;27;34459;-75
2022/01/17 07:01:16;;;;;;;5.75;3.85;;;3.90;56.60;;;;;;5105489;27;34262;-75
2022/01/17 07:03:42;;;;;;;7.30;3.80;;;3.90;56.60;;;;;;5124018;27;34273;-75
2022/01/17 07:06:09;;;;;;;6.03;3.65;;;3.90;56.60;;;;;;5125548;27;34214;-76
2022/01/17 07:08:35;;;;;;;7.07;4.35;;;3.90;56.50;;;;;;5108961;27;34252;-75
2022/01/17 07:11:01;;;;;;;6.53;3.72;;;3.90;56.60;;;;;;5109039;27;34184;-75
2022/01/17 07:13:27;;;;;;;6.95;3.72;;;4.00;56.60;;;;;;5109644;27;34610;-75
2022/01/17 07:15:54;;;;;;;7.28;3.83;;;3.90;56.60;;;;;;5091055;27;35789;-75
2022/01/17 07:18:20;;;;;;;7.18;4.35;;;4.00;56.60;;;;;;5108830;27;34361;-75
2022/01/17 07:20:46;;;;;;;8.48;4.15;;;4.00;56.60;;;;;;5091865;27;34328;-76
2022/01/17 07:23:12;;;;;;;6.80;4.00;;;4.00;56.60;;;;;;5127132;27;34084;-75
2022/01/17 07:25:38;;;;;;;7.40;4.25;;;4.00;56.50;;;;;;5108572;27;35930;-76
2022/01/17 07:28:07;;;;;;;8.95;4.30;;;4.00;56.50;;;;;;5108328;27;34124;-76
2022/01/17 07:30:33;;;;;;;6.25;3.78;;;4.00;56.50;;;;;;5108546;27;34215;-76
2022/01/17 07:32:59;;;;;;;7.45;4.25;;;4.00;56.50;;;;;;5108266;27;34092;-76
2022/01/17 07:35:26;;;;;;;7.53;4.63;;;4.00;56.50;;;;;;5108247;27;35880;-75
2022/01/17 07:37:51;;;;;;;7.50;4.43;;;4.00;56.50;;;;;;5091540;27;34180;-75
2022/01/17 07:40:18;;;;;;;7.13;4.25;;;4.00;56.50;;;;;;5108589;27;34113;-75
2022/01/17 07:42:44;;;;;;;7.20;4.32;;;4.00;56.50;;;;;;5108687;27;34158;-75
2022/01/17 07:45:14;;;;;;;7.38;4.70;;;4.00;56.50;;;;;;5107736;27;34641;-75
2022/01/17 07:47:55;;;;;;;5.53;3.83;;;4.00;56.50;;;;;;5091671;27;34385;-75
2022/01/17 07:50:23;;;;;;;6.72;4.55;;;4.10;56.70;;;;;;5127088;27;34411;-76
2022/01/17 07:52:52;;;;;;;6.10;4.05;;;4.10;56.70;;;;;;5126331;27;34340;-76
2022/01/17 07:55:19;;;;;;;9.27;4.25;;;4.10;56.70;;;;;;5107675;27;36490;-75
2022/01/17 07:57:46;;;;;;;9.30;4.68;;;4.10;56.70;;;;;;5092038;27;34191;-75
2022/01/17 08:00:20;;;;;;;7.82;4.00;;;4.10;56.60;;;;;;5091484;27;34412;-76
2022/01/17 08:02:48;;;;;;;8.77;4.60;;;4.10;56.60;;;;;;5109033;27;34500;-76
2022/01/17 08:05:15;;;;;;;7.47;4.57;;;4.20;56.60;;;;;;5108284;27;35721;-75
2022/01/17 08:07:43;;;;;;;9.75;4.85;;;4.10;56.50;;;;;;5108110;27;34256;-75
2022/01/17 08:10:12;;;;;;;8.65;4.88;;;4.20;56.40;;;;;;5108297;27;34019;-75
2022/01/17 08:12:40;;;;;;;7.30;4.47;;;4.10;56.50;;;;;;5108153;27;34185;-75
2022/01/17 08:15:06;;;;;;;9.68;4.63;;;4.10;56.50;;;;;;5104044;28;35677;-75
2022/01/17 08:17:32;;;;;;;8.15;4.45;;;4.20;56.50;;;;;;5104206;27;34157;-75
2022/01/17 08:19:58;;;;;;;6.97;4.35;;;4.20;56.50;;;;;;5104202;28;34321;-75
2022/01/17 08:22:24;;;;;;;7.18;4.30;;;4.20;56.40;;;;;;5103915;28;34207;-75
2022/01/17 08:24:50;;;;;;;9.30;5.45;;;4.20;56.40;;;;;;5104652;27;34261;-75
2022/01/17 08:27:17;;;;;;;8.05;4.75;;;4.20;56.50;;;;;;5104542;28;34358;-75
2022/01/17 08:29:43;;;;;;;8.25;4.32;;;4.30;56.50;;;;;;5105152;28;34153;-75
2022/01/17 08:32:09;;;;;;;9.68;5.00;;;4.30;56.50;;;;;;5104405;27;34312;-75
2022/01/17 08:34:35;;;;;;;6.78;4.68;;;4.30;56.40;;;;;;5087583;28;35783;-75
2022/01/17 08:37:02;;;;;;;6.57;4.15;;;4.30;56.40;;;;;;5104025;28;34107;-75
2022/01/17 08:39:28;;;;;;;7.72;4.07;;;4.40;57.10;;;;;;5087368;28;34099;-75
2022/01/17 08:41:55;;;;;;;9.02;4.00;;;4.40;56.40;;;;;;5104876;27;34139;-75
2022/01/17 08:44:23;;;;;;;8.13;4.72;;;4.40;56.40;;;;;;5105445;27;34429;-75
2022/01/17 08:46:49;;;;;;;7.50;4.15;;;4.40;56.20;;;;;;5104153;28;34158;-75
2022/01/17 08:49:16;;;;;;;6.80;4.22;;;4.40;56.20;;;;;;5103861;28;34193;-75
2022/01/17 08:51:43;;;;;;;8.80;4.05;;;4.50;56.20;;;;;;5104339;28;34156;-75
2022/01/17 08:54:09;;;;;;;6.18;3.80;;;4.50;56.20;;;;;;5103291;28;35606;-75
2022/01/17 08:56:35;;;;;;;6.57;4.20;;;4.50;56.00;;;;;;5104389;27;34262;-75
2022/01/17 08:59:02;;;;;;;6.95;4.28;;;4.50;56.10;;;;;;5103476;28;34238;-75
2022/01/17 09:01:29;;;;;;;7.57;3.75;;;4.50;56.10;;;;;;5105348;27;34269;-75
2022/01/17 09:03:55;;;;;;;7.95;4.18;;;4.50;56.10;;;;;;5103143;28;35600;-75
2022/01/17 09:06:23;;;;;;;5.53;3.50;;;4.50;56.10;;;;;;5103767;28;34206;-75
2022/01/17 09:08:49;;;;;;;6.13;4.18;;;4.50;56.10;;;;;;5086509;28;34189;-75
2022/01/17 09:11:15;;;;;;;6.85;4.32;;;4.50;56.20;;;;;;5103518;28;34138;-75
2022/01/17 09:13:42;;;;;;;6.22;3.88;;;4.50;56.30;;;;;;5103612;28;36798;-75
2022/01/17 09:16:08;;;;;;;8.00;4.20;;;4.40;56.30;;;;;;5119646;27;34252;-75
2022/01/17 09:18:35;;;;;;;6.90;3.80;;;4.40;56.40;;;;;;5106750;27;34135;-75
2022/01/17 09:21:01;;;;;;;6.88;4.07;;;4.40;56.40;;;;;;5107277;27;34100;-75
2022/01/17 09:23:27;;;;;;;6.80;3.67;;;4.40;56.30;;;;;;5124409;27;34374;-75
2022/01/17 09:25:53;;;;;;;7.53;4.22;;;4.40;56.30;;;;;;5124858;27;34212;-76
2022/01/17 09:28:20;;;;;;;9.32;4.90;;;4.40;56.40;;;;;;5125566;27;34269;-76
2022/01/17 09:30:47;;;;;;;7.55;4.38;;;4.40;56.30;;;;;;5090496;27;34470;-76
2022/01/17 09:33:13;;;;;;;8.15;4.45;;;4.40;56.50;;;;;;5107392;27;34361;-75
2022/01/17 09:35:39;;;;;;;7.63;4.80;;;4.40;56.70;;;;;;5106897;27;34432;-75
2022/01/17 09:38:05;;;;;;;7.50;5.07;;;4.50;56.80;;;;;;5106276;27;34453;-75
2022/01/17 09:40:33;;;;;;;6.72;4.47;;;4.50;56.80;;;;;;5106791;27;34136;-75
2022/01/17 09:43:02;;;;;;;6.95;4.25;;;4.60;56.70;;;;;;5106756;27;36750;-75
2022/01/17 09:45:28;;;;;;;8.05;4.75;;;4.60;56.50;;;;;;5107285;27;34258;-75
2022/01/17 09:47:55;;;;;;;8.10;4.53;;;4.70;56.60;;;;;;5125093;27;34181;-75
2022/01/17 09:50:32;;;;;;;8.15;4.85;;;4.70;56.50;;;;;;5106415;27;34193;-75
2022/01/17 09:53:00;;;;;;;10.85;5.38;;;4.80;56.40;;;;;;5089634;27;35517;-75
2022/01/17 09:55:30;;;;;;;8.90;4.82;;;4.80;56.40;;;;;;5106662;27;34224;-75
2022/01/17 09:58:04;;;;;;;8.13;4.82;;;4.80;56.40;;;;;;5106519;27;34104;-75
2022/01/17 10:00:33;;;;;;;9.18;5.35;;;4.90;56.40;;;;;;5106339;27;34519;-75
2022/01/17 10:03:03;;;;;;;8.73;4.70;;;4.90;56.30;;;;;;5123724;27;34493;-75
2022/01/17 10:05:29;;;;;;;10.88;4.72;;;5.00;56.20;;;;;;5089525;27;34301;-75
2022/01/17 10:08:01;;;;;;;9.90;4.95;;;5.00;56.10;;;;;;5105893;27;34100;-75
2022/01/17 10:10:51;;;;;;;7.65;4.38;;;5.10;56.20;;;;;;5106410;27;34490;-75
2022/01/17 10:13:23;;;;;;;12.50;4.75;;;5.10;56.20;;;;;;5105655;27;36359;-76
2022/01/17 10:16:11;;;;;;;10.80;5.05;;;5.00;56.10;;;;;;5124656;27;34348;-75
2022/01/17 10:18:53;;;;;;;12.38;5.18;;;5.10;56.00;;;;;;5110214;27;34286;-75
2022/01/17 10:21:42;;;;;;;9.13;4.72;;;5.10;56.10;;;;;;5089908;27;34417;-75
2022/01/17 10:24:19;;;;;;;10.45;5.47;;;5.10;56.10;;;;;;5105244;27;36023;-75
2022/01/17 10:27:02;;;;;;;8.20;4.47;;;5.10;56.20;;;;;;5107157;27;34249;-75
2022/01/17 10:35:18;;;;;;;10.73;5.18;;;5.20;56.20;;;;;;5108155;27;34716;-75
2022/01/17 10:38:07;;;;;;;10.88;5.43;;;5.30;56.20;;;;;;5124325;27;34044;-75
2022/01/17 10:40:38;;;;;;;10.32;5.22;;;5.30;56.20;;;;;;5109311;27;34183;-75
2022/01/17 10:43:06;;;;;;;10.23;5.05;;;5.30;56.20;;;;;;5106267;27;34062;-75
2022/01/17 10:45:42;;;;;;;17.77;6.15;;;5.30;56.20;;;;;;5106002;27;36257;-75
2022/01/17 10:48:08;;;;;;;10.65;5.40;;;5.40;56.20;;;;;;5105626;27;34298;-75
2022/01/17 10:50:38;;;;;;;13.05;6.10;;;5.30;56.20;;;;;;5105391;27;34349;-75
2022/01/17 10:53:08;;;;;;;9.05;5.47;;;5.40;56.20;;;;;;5089129;27;34469;-75
2022/01/17 10:55:37;;;;;;;10.57;5.38;;;5.40;56.20;;;;;;5105117;27;35929;-75
2022/01/17 10:58:15;;;;;;;9.32;5.10;;;5.40;56.10;;;;;;5088328;27;34189;-75
2022/01/17 11:00:44;;;;;;;12.52;5.35;;;5.50;56.20;;;;;;5088365;27;34311;-75
2022/01/17 11:03:13;;;;;;;10.65;5.82;;;5.50;56.10;;;;;;5123399;27;34347;-75
2022/01/17 11:05:44;;;;;;;10.27;5.05;;;5.60;56.10;;;;;;5105442;27;35664;-75
2022/01/17 11:08:12;;;;;;;11.75;5.80;;;5.60;56.10;;;;;;5105308;27;34187;-75
2022/01/17 11:10:44;;;;;;;11.35;5.68;;;5.60;56.10;;;;;;5123305;27;34068;-75
2022/01/17 11:13:13;;;;;;;12.55;5.43;;;5.60;56.10;;;;;;5104983;27;34502;-75
2022/01/17 11:15:40;;;;;;;9.35;5.30;;;5.70;56.20;;;;;;5123329;27;34266;-75
2022/01/17 11:18:16;;;;;;;8.30;5.20;;;5.70;56.10;;;;;;5105240;27;34176;-75
2022/01/17 11:20:42;;;;;;;8.27;5.35;;;5.70;56.20;;;;;;5089656;27;34282;-75
2022/01/17 11:23:08;;;;;;;12.32;5.70;;;5.80;56.10;;;;;;5105181;27;34317;-75
2022/01/17 11:25:37;;;;;;;11.23;5.80;;;5.80;56.10;;;;;;5105203;27;34936;-75
2022/01/17 11:28:06;;;;;;;9.77;5.30;;;5.80;56.10;;;;;;5104928;27;34112;-75
2022/01/17 11:30:34;;;;;;;9.75;4.95;;;5.80;56.10;;;;;;5123177;27;34616;-75
2022/01/17 11:33:03;;;;;;;10.60;4.97;;;5.80;56.10;;;;;;5087847;27;34086;-75
2022/01/17 11:35:31;;;;;;;10.85;5.85;;;5.90;56.20;;;;;;5105178;27;35049;-75
2022/01/17 11:38:00;;;;;;;11.10;5.72;;;5.80;56.10;;;;;;5122052;27;34272;-75
2022/01/17 11:40:30;;;;;;;12.15;5.40;;;5.90;56.20;;;;;;5104551;27;34398;-75
2022/01/17 11:42:58;;;;;;;10.48;5.45;;;5.90;56.30;;;;;;5087582;27;34301;-75
2022/01/17 11:45:35;;;;;;;12.25;6.40;;;5.90;56.20;;;;;;5105392;27;34263;-75
2022/01/17 11:48:07;;;;;;;13.88;5.50;;;5.90;56.00;;;;;;5103998;27;34377;-75
2022/01/17 11:50:40;;;;;;;8.75;5.10;;;5.90;56.00;;;;;;5089035;27;34168;-75
2022/01/17 11:53:41;;;;;;;10.80;5.40;;;5.90;56.20;;;;;;5106125;27;34168;-75
2022/01/17 11:56:08;;;;;;;8.35;4.80;;;5.90;55.80;;;;;;5096768;27;35664;-75
2022/01/17 11:58:42;;;;;;;10.68;5.32;;;5.90;56.10;;;;;;5091318;27;34179;-75
2022/01/17 12:01:12;;;;;;;10.40;5.25;;;5.80;56.10;;;;;;5091585;27;34256;-75
2022/01/17 12:03:42;;;;;;;8.07;4.28;;;5.90;56.20;;;;;;5108438;27;34566;-75
2022/01/17 12:06:25;;;;;;;9.82;4.88;;;5.80;56.00;;;;;;5091533;27;35597;-75
2022/01/17 12:09:20;;;;;;;10.27;4.88;;;5.80;56.00;;;;;;5090522;27;34212;-75
2022/01/17 12:12:20;;;;;;;9.65;4.90;;;5.80;56.20;;;;;;5112803;27;34231;-75
2022/01/17 12:14:57;;;;;;;11.52;5.15;;;5.70;56.10;;;;;;5107147;27;34076;-75
2022/01/17 12:17:27;;;;;;;8.38;4.95;;;5.70;56.40;;;;;;5126129;27;34979;-75
2022/01/17 12:20:19;;;;;;;10.23;5.50;;;5.70;56.40;;;;;;5072537;27;34397;-75
2022/01/17 12:22:55;;;;;;;11.40;5.32;;;5.80;56.40;;;;;;5107494;27;34223;-75
2022/01/17 12:25:31;;;;;;;7.95;4.50;;;5.90;56.40;;;;;;5091139;27;34071;-75
2022/01/17 12:28:22;;;;;;;9.57;5.28;;;6.00;56.50;;;;;;5107481;27;35518;-75
2022/01/17 12:30:54;;;;;;;9.95;4.82;;;6.20;56.20;;;;;;5094743;27;34119;-75
2022/01/17 12:33:39;;;;;;;11.23;5.00;;;6.40;56.10;;;;;;5092025;27;33990;-75
2022/01/17 12:36:28;;;;;;;12.50;5.03;;;6.40;55.40;;;;;;5126320;27;34246;-75
2022/01/17 12:39:12;;;;;;;10.70;5.38;;;6.50;55.60;;;;;;5111322;27;36502;-75
2022/01/17 12:41:41;;;;;;;14.50;5.18;;;6.60;55.40;;;;;;5108500;27;34240;-75
2022/01/17 12:44:18;;;;;;;8.85;5.22;;;6.60;55.50;;;;;;5108462;27;34171;-75
2022/01/17 12:46:46;;;;;;;11.55;4.75;;;6.60;55.50;;;;;;5091610;27;34121;-75
2022/01/17 12:49:13;;;;;;;11.18;5.38;;;6.60;55.50;;;;;;5091197;27;35721;-75
2022/01/17 12:51:42;;;;;;;11.27;5.30;;;6.60;55.50;;;;;;5108352;27;34376;-75
2022/01/17 12:54:11;;;;;;;10.98;5.15;;;6.60;55.50;;;;;;5108029;27;34116;-75
2022/01/17 12:56:41;;;;;;;10.57;5.30;;;6.60;55.70;;;;;;5108653;27;34515;-75
2022/01/17 12:59:09;;;;;;;11.35;5.30;;;6.50;55.70;;;;;;5091004;27;36812;-75
2022/01/17 13:01:39;;;;;;;9.95;4.78;;;6.50;55.70;;;;;;5107792;27;34560;-75
2022/01/17 13:04:08;;;;;;;9.57;5.13;;;6.50;55.90;;;;;;5107856;27;34219;-75
2022/01/17 13:06:34;;;;;;;10.95;4.82;;;6.50;55.90;;;;;;5108020;27;34348;-75
2022/01/17 13:09:07;;;;;;;8.65;5.20;;;6.50;56.00;;;;;;5125240;27;34195;-75
2022/01/17 13:11:40;;;;;;;9.70;5.35;;;6.40;56.00;;;;;;5107788;27;34297;-75
2022/01/17 13:14:06;;;;;;;9.00;4.82;;;6.50;56.10;;;;;;5107490;27;34164;-75
2022/01/17 13:16:34;;;;;;;10.00;5.13;;;6.40;56.00;;;;;;5125629;27;34004;-75
2022/01/17 13:19:00;;;;;;;11.70;6.05;;;6.50;56.10;;;;;;5125424;27;34416;-75
2022/01/17 13:21:27;;;;;;;10.95;5.53;;;6.50;56.10;;;;;;5107898;27;34280;-75
2022/01/17 13:24:00;;;;;;;12.10;5.32;;;6.60;56.00;;;;;;5107426;27;33820;-75
2022/01/17 13:26:37;;;;;;;9.70;5.53;;;6.70;56.10;;;;;;5107642;27;34512;-75
2022/01/17 13:29:07;;;;;;;9.98;5.18;;;6.80;55.90;;;;;;5107122;27;36013;-75